Time;durP1;ratioP1;P1;durP2;ratioP2;P2;SDS_P1;SDS_P2;PMS_P1;PMS_P2;Temp;Humidity;BMP_temperature;BMP_pressure;BME280_temperature;BME280_humidity;BME280_pressure;Samples;Min_cycle;Max_cycle;Signal;HPM_P1;HPM_P2
2021/07/12 00:02:06;;;;;;;39.13;5.90;;;;;;;16.49;90.27;97893.84;5002508;28;20109;-71
2021/07/12 00:04:31;;;;;;;53.40;6.53;;;;;;;16.40;91.32;97903.19;5004655;28;20032;-71
2021/07/12 00:06:56;;;;;;;39.92;5.93;;;;;;;16.89;91.51;97893.78;5000608;28;20404;-70
2021/07/12 00:09:22;;;;;;;32.30;5.28;;;;;;;17.42;92.24;97896.28;5002290;28;20072;-70
2021/07/12 00:11:47;;;;;;;43.35;6.20;;;;;;;17.54;90.08;97890.16;5000222;28;20052;-70
2021/07/12 00:14:13;;;;;;;43.45;6.20;;;;;;;17.07;90.88;97897.78;5001597;28;20033;-72
2021/07/12 00:16:39;;;;;;;41.03;6.22;;;;;;;16.94;91.07;97894.31;4999420;28;20044;-71
2021/07/12 00:19:04;;;;;;;49.65;7.07;;;;;;;16.65;90.80;97889.22;5002431;28;20423;-72
2021/07/12 00:21:30;;;;;;;53.53;7.38;;;;;;;16.97;88.41;97891.50;5000557;28;20046;-70
2021/07/12 00:23:56;;;;;;;34.08;5.30;;;;;;;17.27;91.17;97887.66;5001304;28;20029;-71
2021/07/12 00:26:22;;;;;;;35.42;5.88;;;;;;;17.47;90.58;97876.53;5001742;28;20045;-72
2021/07/12 00:28:47;;;;;;;39.45;6.10;;;;;;;17.45;90.00;97881.09;5000229;28;20571;-70
2021/07/12 00:31:13;;;;;;;30.80;5.18;;;;;;;17.01;90.59;97884.22;4999551;28;20045;-70
2021/07/12 00:33:42;;;;;;;46.33;6.25;;;;;;;16.90;93.06;97879.69;5002678;28;20440;-72
2021/07/12 00:36:07;;;;;;;44.47;5.97;;;;;;;17.29;90.90;97876.06;5002095;28;20062;-70
2021/07/12 00:38:33;;;;;;;37.80;5.65;;;;;;;17.94;90.74;97873.25;5000343;28;20057;-71
2021/07/12 00:40:59;;;;;;;49.85;6.65;;;;;;;18.10;87.92;97871.19;5004008;28;20515;-70
2021/07/12 00:43:25;;;;;;;39.60;6.05;;;;;;;18.01;88.23;97866.59;5001196;28;20068;-71
2021/07/12 00:45:51;;;;;;;41.17;6.07;;;;;;;17.81;86.20;97860.94;5002916;28;20041;-71
2021/07/12 00:48:17;;;;;;;41.03;5.63;;;;;;;17.83;87.83;97864.31;5004258;28;20612;-71
2021/07/12 00:50:43;;;;;;;37.55;5.40;;;;;;;17.83;89.13;97866.09;5000086;28;20049;-71
2021/07/12 00:53:10;;;;;;;35.90;5.95;;;;;;;17.91;86.35;97861.16;5000468;28;20068;-70
2021/07/12 00:55:38;;;;;;;45.92;5.90;;;;;;;17.99;85.76;97863.22;5000260;28;20053;-70
2021/07/12 00:58:09;;;;;;;36.22;5.60;;;;;;;18.35;85.25;97864.09;4999705;28;20088;-71
2021/07/12 01:00:35;;;;;;;40.10;6.05;;;;;;;18.11;86.57;97862.31;5001270;28;20046;-71
2021/07/12 01:03:02;;;;;;;38.70;5.53;;;;;;;18.01;86.34;97867.44;5002412;28;20644;-71
2021/07/12 01:05:30;;;;;;;41.17;5.85;;;;;;;17.73;88.24;97863.28;5003617;28;20033;-70
2021/07/12 01:07:56;;;;;;;44.03;6.53;;;;;;;17.38;86.42;97857.91;5001683;28;20101;-71
2021/07/12 01:10:22;;;;;;;49.70;6.60;;;;;;;17.73;85.59;97858.84;4999370;28;20113;-71
2021/07/12 01:12:56;;;;;;;34.97;5.25;;;;;;;17.91;86.25;97854.06;5002231;28;20057;-72
2021/07/12 01:15:26;;;;;;;39.55;5.47;;;;;;;18.06;85.25;97856.53;5000868;28;20029;-72
2021/07/12 01:18:29;;;;;;;42.08;5.95;;;;;;;18.01;87.14;97856.88;5000428;28;20025;-70
2021/07/12 01:23:56;;;;;;;42.22;6.03;;;;;;;17.78;87.26;97866.44;5064936;27;20378;-70
2021/07/12 01:26:36;;;;;;;36.53;5.47;;;;;;;17.79;86.68;97862.88;5009971;28;20100;-70
2021/07/12 01:29:24;;;;;;;40.53;5.72;;;;;;;17.73;85.25;97858.00;5056701;28;20702;-70
2021/07/12 01:32:28;;;;;;;39.50;6.00;;;;;;;18.18;86.62;97862.69;5056214;28;20043;-71
2021/07/12 01:35:25;;;;;;;40.50;5.43;;;;;;;18.32;85.25;97853.75;5056775;28;20101;-71
2021/07/12 01:38:03;;;;;;;35.15;5.43;;;;;;;18.25;84.50;97848.94;5032392;28;20069;-70
2021/07/12 01:40:42;;;;;;;40.17;5.38;;;;;;;18.04;85.93;97842.63;5039574;28;20918;-71
2021/07/12 01:43:33;;;;;;;42.42;5.70;;;;;;;18.20;84.68;97837.88;5055655;28;20025;-70
2021/07/12 01:45:59;;;;;;;41.35;5.60;;;;;;;18.45;82.79;97831.59;5055933;28;20048;-72
2021/07/12 01:48:57;;;;;;;40.92;5.45;;;;;;;18.59;83.76;97827.91;5056248;28;20029;-72
2021/07/12 01:51:31;;;;;;;36.97;5.18;;;;;;;18.87;81.89;97818.69;5050171;28;20040;-71
2021/07/12 01:54:16;;;;;;;42.35;5.28;;;;;;;18.34;79.35;97815.69;5055478;28;20044;-71
2021/07/12 01:56:53;;;;;;;31.40;4.47;;;;;;;18.69;80.23;97813.03;5055562;28;20042;-71
2021/07/12 01:59:24;;;;;;;39.65;5.38;;;;;;;18.36;83.28;97810.31;5055936;28;20025;-71
2021/07/12 02:01:51;;;;;;;34.75;5.03;;;;;;;18.80;81.36;97813.97;5036660;28;20033;-71
2021/07/12 02:04:19;;;;;;;33.17;4.72;;;;;;;19.04;80.33;97804.19;5055764;28;20025;-72
2021/07/12 02:06:47;;;;;;;35.45;5.07;;;;;;;18.76;82.42;97799.34;5055361;28;20044;-70
2021/07/12 02:09:14;;;;;;;32.60;4.85;;;;;;;18.81;81.04;97802.50;5055485;28;20081;-71
2021/07/12 02:11:45;;;;;;;38.75;5.40;;;;;;;19.27;78.61;97804.16;5037174;28;20463;-70
2021/07/12 02:14:12;;;;;;;40.72;5.35;;;;;;;19.38;78.91;97796.19;5055099;28;20020;-71
2021/07/12 02:16:56;;;;;;;44.92;5.50;;;;;;;19.24;79.44;97793.81;5039519;28;20403;-69
2021/07/12 02:19:23;;;;;;;43.80;5.60;;;;;;;19.07;79.28;97785.41;5043724;28;20132;-71
2021/07/12 02:21:51;;;;;;;41.42;5.53;;;;;;;19.05;80.41;97779.41;5044821;28;20708;-72
2021/07/12 02:24:19;;;;;;;34.00;4.95;;;;;;;19.02;80.96;97777.03;5046071;28;20048;-71
2021/07/12 02:26:45;;;;;;;55.72;6.50;;;;;;;18.55;80.72;97776.28;5044157;28;20048;-71
2021/07/12 02:29:14;;;;;;;34.97;5.25;;;;;;;18.65;81.84;97776.38;5043638;28;20025;-72
2021/07/12 02:31:40;;;;;;;40.17;5.15;;;;;;;18.78;81.49;97766.53;5044724;28;20051;-70
2021/07/12 02:34:07;;;;;;;39.92;5.00;;;;;;;18.82;81.76;97768.03;5045774;28;20033;-70
2021/07/12 02:36:34;;;;;;;40.83;5.68;;;;;;;18.87;80.84;97760.56;5044848;28;20506;-71
2021/07/12 02:39:01;;;;;;;43.70;5.55;;;;;;;18.59;81.64;97764.50;5044125;28;20033;-71
2021/07/12 02:41:28;;;;;;;51.63;6.85;;;;;;;18.19;82.21;97759.63;5046301;28;20036;-70
2021/07/12 02:43:55;;;;;;;36.47;5.20;;;;;;;18.70;81.56;97758.38;5044715;28;20044;-71
2021/07/12 02:46:23;;;;;;;42.13;5.15;;;;;;;19.39;77.72;97754.72;5045672;28;20106;-72
2021/07/12 02:48:49;;;;;;;41.25;5.07;;;;;;;19.77;77.69;97743.69;5044392;28;20025;-71
2021/07/12 02:51:17;;;;;;;40.38;5.38;;;;;;;19.27;78.42;97748.63;5044067;28;20033;-71
2021/07/12 02:53:53;;;;;;;57.90;5.88;;;;;;;18.76;79.90;97743.84;5045370;28;20039;-71
2021/07/12 02:56:18;;;;;;;39.78;5.30;;;;;;;19.33;78.86;97745.47;5045234;28;20068;-71
2021/07/12 02:58:44;;;;;;;38.42;5.13;;;;;;;19.95;75.78;97748.44;5043385;28;20071;-71
2021/07/12 03:01:09;;;;;;;42.00;5.25;;;;;;;19.30;78.11;97750.19;5045928;28;20120;-71
2021/07/12 03:03:34;;;;;;;41.45;5.55;;;;;;;19.28;78.50;97750.31;5044628;28;20024;-71
2021/07/12 03:06:09;;;;;;;36.33;4.85;;;;;;;18.90;79.09;97748.94;5046518;28;20061;-71
2021/07/12 03:08:57;;;;;;;40.05;5.15;;;;;;;18.94;79.98;97753.00;5043984;28;20406;-70
2021/07/12 03:11:48;;;;;;;38.35;5.95;;;;;;;18.44;81.90;97763.06;5042943;28;20825;-71
2021/07/12 03:14:20;;;;;;;42.60;5.82;;;;;;;18.35;82.28;97758.47;5012353;28;20102;-72
2021/07/12 03:16:47;;;;;;;33.92;5.18;;;;;;;18.54;81.96;97755.25;5042735;28;20165;-71
2021/07/12 03:19:23;;;;;;;35.80;5.82;;;;;;;18.57;81.00;97750.56;5046463;28;20026;-71
2021/07/12 03:21:51;;;;;;;38.85;5.32;;;;;;;19.18;79.37;97747.56;5042264;28;20186;-70
2021/07/12 03:24:19;;;;;;;31.60;4.93;;;;;;;19.13;79.78;97754.19;5044044;28;20043;-71
2021/07/12 03:26:47;;;;;;;40.90;5.20;;;;;;;20.03;76.39;97761.84;5041710;28;20037;-72
2021/07/12 03:29:13;;;;;;;38.22;5.57;;;;;;;19.47;76.13;97756.78;5031433;28;20036;-71
2021/07/12 03:31:41;;;;;;;43.85;6.10;;;;;;;19.37;77.41;97756.66;5031776;28;20167;-70
2021/07/12 03:34:08;;;;;;;41.67;5.90;;;;;;;18.97;78.98;97762.50;5031263;28;20150;-70
2021/07/12 03:36:37;;;;;;;38.92;5.18;;;;;;;19.20;78.99;97761.50;5031316;28;20049;-71
2021/07/12 03:39:05;;;;;;;34.13;4.70;;;;;;;19.66;77.01;97767.50;5029327;28;20029;-70
2021/07/12 03:41:31;;;;;;;43.80;6.78;;;;;;;18.98;79.12;97770.28;5030226;28;20059;-70
2021/07/12 03:43:58;;;;;;;37.80;5.30;;;;;;;19.29;78.16;97765.22;5032004;28;20404;-72
2021/07/12 03:46:23;;;;;;;41.53;5.78;;;;;;;19.37;77.41;97762.81;5029134;28;20144;-72
2021/07/12 03:48:49;;;;;;;43.97;5.95;;;;;;;19.67;76.43;97763.91;5029813;28;20457;-71
2021/07/12 03:51:26;;;;;;;52.08;6.40;;;;;;;19.68;76.32;97764.75;5028710;28;20051;-72
2021/07/12 03:53:52;;;;;;;44.03;6.00;;;;;;;18.55;81.35;97770.16;5030520;28;20033;-71
2021/07/12 03:56:18;;;;;;;41.80;5.63;;;;;;;19.08;79.87;97767.78;5028319;28;20675;-71
2021/07/12 03:58:45;;;;;;;36.53;4.82;;;;;;;19.23;78.49;97765.72;5029521;28;20048;-71
2021/07/12 04:01:10;;;;;;;41.40;5.82;;;;;;;18.38;82.49;97767.00;5029697;28;20033;-70
2021/07/12 04:03:36;;;;;;;40.45;5.28;;;;;;;19.13;79.25;97770.88;5027791;28;20099;-71
2021/07/12 04:06:03;;;;;;;41.20;5.43;;;;;;;18.32;81.18;97766.63;5027122;28;20041;-71
2021/07/12 04:08:28;;;;;;;47.83;6.53;;;;;;;18.17;81.29;97764.19;5027606;28;20032;-71
2021/07/12 04:10:54;;;;;;;45.83;5.55;;;;;;;19.13;79.39;97764.75;5029542;28;20048;-71
2021/07/12 04:13:19;;;;;;;46.08;5.90;;;;;;;19.16;77.69;97764.53;5028748;28;20029;-69
2021/07/12 04:15:44;;;;;;;40.97;5.65;;;;;;;18.88;79.78;97764.06;5029116;28;20410;-71
2021/07/12 04:18:10;;;;;;;38.35;5.68;;;;;;;18.95;78.10;97767.03;5030104;28;20116;-71
2021/07/12 04:20:37;;;;;;;35.47;4.88;;;;;;;18.76;80.97;97767.63;5027592;28;20068;-71
2021/07/12 04:23:03;;;;;;;41.42;6.53;;;;;;;17.58;83.92;97775.56;5030882;28;20075;-70
2021/07/12 04:25:29;;;;;;;40.40;5.50;;;;;;;18.41;83.13;97771.19;5030084;28;20041;-70
2021/07/12 04:27:56;;;;;;;40.25;5.97;;;;;;;18.97;80.04;97779.19;5029264;28;20107;-72
2021/07/12 04:30:21;;;;;;;40.03;5.70;;;;;;;19.02;79.35;97763.81;5028372;28;25320;-70
2021/07/12 04:32:47;;;;;;;37.22;5.53;;;;;;;18.71;81.01;97767.16;5030546;28;20027;-71
2021/07/12 04:35:13;;;;;;;42.28;7.13;;;;;;;18.07;82.25;97763.22;5028541;28;20021;-70
2021/07/12 04:37:39;;;;;;;45.45;6.25;;;;;;;18.40;82.33;97766.91;5029872;28;20678;-71
2021/07/12 04:40:05;;;;;;;46.17;6.47;;;;;;;18.74;80.34;97753.72;5027860;28;20021;-70
2021/07/12 04:42:31;;;;;;;42.20;6.40;;;;;;;18.69;80.85;97757.56;5029063;28;20036;-70
2021/07/12 04:44:57;;;;;;;41.03;7.28;;;;;;;17.91;83.19;97760.88;5028896;28;20033;-71
2021/07/12 04:47:23;;;;;;;36.10;5.72;;;;;;;18.11;83.24;97767.31;5029857;28;20049;-70
2021/07/12 04:49:48;;;;;;;36.47;6.25;;;;;;;18.18;83.94;97767.66;5029771;28;20268;-72
2021/07/12 04:52:14;;;;;;;37.70;4.93;;;;;;;18.92;81.24;97762.84;5028423;28;20510;-71
2021/07/12 04:54:39;;;;;;;39.53;5.57;;;;;;;19.19;78.33;97761.63;5029538;28;20854;-70
2021/07/12 04:57:04;;;;;;;38.58;5.35;;;;;;;19.16;79.41;97759.22;5030054;28;20037;-71
2021/07/12 04:59:37;;;;;;;38.17;6.40;;;;;;;19.12;78.35;97757.81;5027320;28;20121;-71
2021/07/12 05:02:03;;;;;;;72.65;7.97;;;;;;;19.06;78.89;97762.59;5021489;28;20047;-70
2021/07/12 05:04:28;;;;;;;36.97;5.13;;;;;;;19.60;77.60;97762.72;5028391;28;20036;-71
2021/07/12 05:06:53;;;;;;;35.75;4.65;;;;;;;19.81;76.35;97765.44;5033343;28;20107;-71
2021/07/12 05:09:19;;;;;;;27.27;5.03;;;;;;;19.18;77.91;97757.31;5033531;28;20438;-72
2021/07/12 05:11:44;;;;;;;36.08;5.10;;;;;;;19.53;78.07;97750.97;5031964;28;20136;-71
2021/07/12 05:14:10;;;;;;;29.17;5.88;;;;;;;19.47;76.00;97756.78;5029003;28;20031;-71
2021/07/12 05:16:35;;;;;;;25.15;4.57;;;;;;;19.62;75.64;97751.03;5027531;28;20037;-71
2021/07/12 05:19:00;;;;;;;35.53;4.95;;;;;;;19.33;78.11;97753.41;5033539;28;21069;-72
2021/07/12 05:21:28;;;;;;;40.30;5.65;;;;;;;19.58;76.43;97754.91;5033833;28;20041;-71
2021/07/12 05:23:54;;;;;;;29.50;4.60;;;;;;;20.07;75.49;97758.00;5033609;28;20051;-71
2021/07/12 05:27:08;;;;;;;32.45;4.45;;;;;;;20.58;73.19;97765.09;5018908;27;20532;-70
2021/07/12 05:29:34;;;;;;;27.27;5.00;;;;;;;20.13;74.58;97765.41;5007563;28;20042;-71
2021/07/12 05:31:59;;;;;;;27.70;4.45;;;;;;;20.10;75.38;97759.53;5001907;28;20061;-70
2021/07/12 05:34:24;;;;;;;31.85;4.78;;;;;;;20.54;73.10;97753.09;4989188;28;20111;-71
2021/07/12 05:36:50;;;;;;;33.53;5.05;;;;;;;19.88;76.12;97763.13;4988440;28;20061;-72
2021/07/12 05:39:15;;;;;;;39.85;7.45;;;;;;;18.62;80.30;97755.50;4989380;28;20037;-69
2021/07/12 05:41:41;;;;;;;57.35;14.93;;;;;;;19.31;82.83;97747.41;4988847;28;20486;-72
2021/07/12 05:44:06;;;;;;;51.90;12.00;;;;;;;20.15;84.69;97742.28;4988972;28;20030;-70
2021/07/12 05:46:32;;;;;;;53.28;10.95;;;;;;;20.86;81.80;97738.94;4988091;28;20045;-71
2021/07/12 05:48:57;;;;;;;45.33;9.10;;;;;;;20.47;82.76;97746.66;4989266;28;20104;-70
2021/07/12 05:51:22;;;;;;;42.58;7.90;;;;;;;20.60;79.59;97736.72;4988174;28;20061;-71
2021/07/12 05:53:48;;;;;;;34.22;6.43;;;;;;;20.58;77.35;97727.19;4990723;28;20076;-71
2021/07/12 05:56:14;;;;;;;30.38;5.00;;;;;;;20.56;76.49;97734.44;4989151;28;20381;-71
2021/07/12 05:58:39;;;;;;;35.67;6.20;;;;;;;19.65;81.74;97740.22;4989197;28;20038;-71
2021/07/12 06:01:04;;;;;;;41.35;6.30;;;;;;;19.84;84.25;97739.56;4988986;28;20077;-72
2021/07/12 06:03:30;;;;;;;45.40;7.38;;;;;;;20.70;81.99;97736.75;4989679;28;20557;-71
2021/07/12 06:05:55;;;;;;;38.88;5.90;;;;;;;21.33;78.92;97730.38;4988351;28;20412;-71
2021/07/12 06:08:21;;;;;;;35.22;5.65;;;;;;;20.94;77.12;97732.94;4988937;28;20117;-71
2021/07/12 06:10:46;;;;;;;37.85;5.68;;;;;;;20.30;80.34;97723.44;4988995;28;20033;-71
2021/07/12 06:13:12;;;;;;;34.33;5.25;;;;;;;20.59;78.25;97721.75;4990106;28;20049;-70
2021/07/12 06:15:37;;;;;;;35.25;5.60;;;;;;;20.38;77.71;97721.81;5000554;28;20040;-70
2021/07/12 06:18:03;;;;;;;31.52;5.93;;;;;;;19.92;80.24;97719.56;4985866;28;20639;-70
2021/07/12 06:20:28;;;;;;;35.75;5.05;;;;;;;20.22;80.17;97721.44;4987464;28;20594;-70
2021/07/12 06:22:53;;;;;;;30.00;5.65;;;;;;;19.94;79.87;97722.91;4990138;28;20080;-71
2021/07/12 06:25:20;;;;;;;30.25;4.80;;;;;;;20.63;77.83;97718.88;4986361;28;20066;-71
2021/07/12 06:27:46;;;;;;;32.05;5.72;;;;;;;20.90;75.96;97721.78;4989039;28;20073;-71
2021/07/12 06:30:13;;;;;;;32.83;5.00;;;;;;;20.35;78.04;97726.53;4986048;28;20181;-70
2021/07/12 06:32:41;;;;;;;25.67;4.72;;;;;;;20.67;77.05;97728.25;4987187;28;20036;-71
2021/07/12 06:35:07;;;;;;;35.33;5.95;;;;;;;20.34;77.00;97736.25;4989366;28;20046;-69
2021/07/12 06:37:33;;;;;;;28.65;5.50;;;;;;;20.02;77.76;97736.34;4979265;28;20156;-71
2021/07/12 06:40:00;;;;;;;33.95;6.03;;;;;;;20.36;76.35;97744.91;4973375;28;20037;-70
2021/07/12 06:42:25;;;;;;;35.65;5.72;;;;;;;20.17;78.62;97745.66;4972786;28;20093;-71
2021/07/12 06:44:57;;;;;;;34.30;5.03;;;;;;;20.86;75.86;97746.88;4974610;28;20034;-70
2021/07/12 06:47:22;;;;;;;27.67;4.33;;;;;;;20.87;75.47;97748.53;4974665;28;20054;-70
2021/07/12 06:49:47;;;;;;;28.52;4.82;;;;;;;19.79;81.51;97757.63;4974649;28;20116;-70
2021/07/12 06:52:13;;;;;;;28.35;5.30;;;;;;;20.21;78.09;97756.81;4974345;28;20050;-70
2021/07/12 06:54:38;;;;;;;32.22;4.53;;;;;;;21.11;75.13;97768.59;4974972;28;20041;-70
2021/07/12 06:57:06;;;;;;;34.10;5.28;;;;;;;20.41;77.43;97765.72;4974113;28;20030;-70
2021/07/12 06:59:31;;;;;;;24.80;4.15;;;;;;;21.07;74.93;97760.06;4974126;28;20035;-70
2021/07/12 07:01:57;;;;;;;33.80;5.57;;;;;;;20.23;77.88;97761.00;4974326;28;20046;-71
2021/07/12 07:04:22;;;;;;;34.28;5.38;;;;;;;20.53;76.65;97763.81;4975013;28;20029;-70
2021/07/12 07:06:47;;;;;;;29.30;5.10;;;;;;;20.48;77.02;97764.25;4972177;28;20043;-71
2021/07/12 07:09:13;;;;;;;30.48;5.60;;;;;;;20.60;76.02;97757.94;4973351;28;20039;-70
2021/07/12 07:11:41;;;;;;;35.17;5.88;;;;;;;20.35;77.98;97758.31;4976153;28;20625;-71
2021/07/12 07:14:06;;;;;;;29.55;4.80;;;;;;;20.48;77.25;97748.34;4987727;28;20058;-72
2021/07/12 07:16:31;;;;;;;32.70;6.43;;;;;;;20.12;78.32;97747.00;4973896;28;20074;-71
2021/07/12 07:18:57;;;;;;;32.92;5.78;;;;;;;20.32;77.91;97742.69;4972254;28;20647;-72
2021/07/12 07:21:22;;;;;;;31.80;5.35;;;;;;;20.46;77.54;97739.69;4974322;28;20137;-70
2021/07/12 07:23:47;;;;;;;24.50;4.15;;;;;;;21.47;73.75;97740.63;4975333;28;20034;-70
2021/07/12 07:26:13;;;;;;;29.33;5.10;;;;;;;21.22;74.68;97731.34;4971612;28;20038;-70
2021/07/12 07:28:39;;;;;;;34.08;5.18;;;;;;;21.95;71.17;97715.06;4973343;28;20074;-71
2021/07/12 07:31:05;;;;;;;32.65;5.22;;;;;;;21.71;72.33;97721.66;4986882;28;20027;-70
2021/07/12 07:33:31;;;;;;;32.33;5.28;;;;;;;21.97;71.44;97714.94;4973442;28;20467;-70
2021/07/12 07:35:57;;;;;;;34.75;5.45;;;;;;;22.05;70.79;97712.41;4971624;28;20068;-71
2021/07/12 07:38:23;;;;;;;34.08;5.90;;;;;;;21.72;71.59;97706.56;4973245;28;20494;-69
2021/07/12 07:40:49;;;;;;;29.08;5.10;;;;;;;21.73;71.93;97708.25;4974502;28;20034;-72
2021/07/12 07:43:14;;;;;;;27.35;4.60;;;;;;;22.38;70.22;97710.25;4973260;28;20034;-71
2021/07/12 07:45:40;;;;;;;28.70;5.60;;;;;;;21.67;72.95;97701.69;4987854;28;20038;-72
2021/07/12 07:48:06;;;;;;;29.42;4.80;;;;;;;21.74;72.69;97696.63;4973689;28;20509;-73
2021/07/12 07:50:32;;;;;;;29.67;5.10;;;;;;;21.82;72.70;97690.66;4972019;28;20112;-73
2021/07/12 07:52:58;;;;;;;27.50;4.85;;;;;;;21.86;72.54;97697.34;4972725;28;20049;-73
2021/07/12 07:55:26;;;;;;;29.58;5.40;;;;;;;21.63;72.99;97687.00;4972231;28;20026;-71
2021/07/12 07:57:51;;;;;;;27.05;4.68;;;;;;;21.88;72.68;97685.59;4987871;28;20062;-70
2021/07/12 08:00:20;;;;;;;27.48;5.20;;;;;;;21.57;73.47;97687.56;4972482;28;21068;-71
2021/07/12 08:02:45;;;;;;;31.95;5.00;;;;;;;22.84;69.05;97687.25;4973242;28;20040;-70
2021/07/12 08:05:11;;;;;;;24.63;4.72;;;;;;;22.18;70.64;97686.34;4971650;28;20027;-71
2021/07/12 08:07:37;;;;;;;40.92;5.93;;;;;;;22.00;71.99;97677.47;4972789;28;20150;-70
2021/07/12 08:10:10;;;;;;;35.58;5.88;;;;;;;22.19;70.92;97671.28;4971490;28;20031;-71
2021/07/12 08:12:36;;;;;;;30.90;5.35;;;;;;;22.47;69.94;97665.03;4972833;28;20026;-70
2021/07/12 08:15:03;;;;;;;33.25;5.90;;;;;;;22.46;70.70;97668.69;4971982;28;20035;-70
2021/07/12 08:17:29;;;;;;;33.15;5.00;;;;;;;23.07;67.85;97666.47;4971880;28;20046;-70
2021/07/12 08:19:54;;;;;;;27.27;4.68;;;;;;;22.85;68.55;97663.19;4975761;28;20085;-72
2021/07/12 08:22:19;;;;;;;28.58;5.00;;;;;;;22.84;68.91;97656.19;4971873;28;20088;-71
2021/07/12 08:24:45;;;;;;;34.97;5.63;;;;;;;22.36;71.03;97657.25;4972201;28;20339;-71
2021/07/12 08:27:10;;;;;;;27.75;4.50;;;;;;;22.69;69.60;97657.69;4971086;28;20056;-70
2021/07/12 08:29:35;;;;;;;34.72;5.38;;;;;;;22.95;68.43;97656.97;4970031;28;20042;-70
2021/07/12 08:32:01;;;;;;;30.05;5.13;;;;;;;22.75;69.09;97667.72;4972602;28;20039;-71
2021/07/12 08:34:26;;;;;;;30.95;4.97;;;;;;;23.28;67.05;97659.00;4971077;28;20034;-72
2021/07/12 08:36:52;;;;;;;26.58;4.28;;;;;;;23.39;66.80;97659.78;4973433;28;20034;-71
2021/07/12 08:39:20;;;;;;;26.98;4.57;;;;;;;23.44;66.43;97654.84;4970890;28;20030;-71
2021/07/12 08:41:45;;;;;;;40.28;5.60;;;;;;;23.60;65.64;97649.66;4972907;28;20400;-72
2021/07/12 08:44:11;;;;;;;39.70;5.47;;;;;;;22.88;68.38;97646.09;4973310;28;20041;-71
2021/07/12 08:46:36;;;;;;;30.20;4.80;;;;;;;23.31;66.51;97647.25;4972053;28;20078;-71
2021/07/12 08:49:02;;;;;;;34.58;5.18;;;;;;;23.08;68.49;97649.50;4971937;28;20061;-72
2021/07/12 08:51:28;;;;;;;33.85;5.05;;;;;;;23.28;67.60;97647.53;4970150;28;20467;-70
2021/07/12 08:53:53;;;;;;;27.92;4.35;;;;;;;23.14;67.63;97651.56;4974889;28;20026;-71
2021/07/12 08:56:19;;;;;;;32.50;4.72;;;;;;;23.34;66.83;97656.72;4973102;28;20038;-72
2021/07/12 08:58:45;;;;;;;29.50;4.88;;;;;;;22.94;68.84;97649.97;4971903;28;20031;-71
2021/07/12 09:01:10;;;;;;;32.47;5.13;;;;;;;23.57;65.70;97641.97;4971246;28;20066;-72
2021/07/12 09:03:38;;;;;;;26.55;4.70;;;;;;;23.56;65.76;97640.28;4972461;28;20118;-70
2021/07/12 09:06:11;;;;;;;29.33;4.78;;;;;;;23.30;67.19;97634.91;4970206;28;20042;-71
2021/07/12 09:08:56;;;;;;;30.75;4.90;;;;;;;23.15;66.79;97634.59;4972757;28;20038;-70
2021/07/12 09:11:36;;;;;;;32.47;4.75;;;;;;;23.29;66.36;97623.44;4973370;28;20038;-70
2021/07/12 09:14:08;;;;;;;34.67;5.32;;;;;;;23.79;65.00;97624.69;4971586;28;20038;-71
2021/07/12 09:16:44;;;;;;;31.48;4.80;;;;;;;23.71;65.12;97621.97;4968443;28;20630;-70
2021/07/12 09:19:12;;;;;;;32.00;5.05;;;;;;;23.34;66.40;97619.47;4969911;28;20390;-72
2021/07/12 09:22:05;;;;;;;36.40;5.43;;;;;;;24.04;64.19;97611.53;4970525;28;20097;-71
2021/07/12 09:24:33;;;;;;;34.28;5.28;;;;;;;24.04;63.97;97601.75;4971852;28;20038;-70
2021/07/12 09:27:00;;;;;;;32.15;5.05;;;;;;;24.21;63.19;97596.50;4972047;28;20058;-70
2021/07/12 09:29:32;;;;;;;32.75;5.10;;;;;;;24.21;63.64;97599.16;4971275;28;20046;-73
2021/07/12 09:31:59;;;;;;;31.38;5.25;;;;;;;23.86;64.24;97593.78;4970496;28;20031;-70
2021/07/12 09:34:25;;;;;;;27.38;5.47;;;;;;;24.04;64.36;97596.41;4972686;28;20038;-71
2021/07/12 09:36:52;;;;;;;27.45;4.82;;;;;;;24.20;63.29;97598.31;4972909;28;20679;-70
2021/07/12 09:39:50;;;;;;;28.60;5.20;;;;;;;24.27;62.81;97593.19;4971188;28;20781;-69
2021/07/12 09:42:23;;;;;;;29.80;5.03;;;;;;;23.84;64.67;97585.13;4971927;28;20120;-70
2021/07/12 09:44:54;;;;;;;25.73;5.20;;;;;;;23.67;65.14;97588.63;4971754;28;20031;-71
2021/07/12 09:47:23;;;;;;;34.00;5.77;;;;;;;24.02;63.51;97586.88;4971870;28;20050;-69
2021/07/12 09:49:50;;;;;;;32.45;5.57;;;;;;;24.10;63.17;97592.28;4971360;28;20042;-69
2021/07/12 09:52:19;;;;;;;29.92;5.32;;;;;;;24.44;62.35;97586.94;4971185;28;20048;-71
2021/07/12 09:54:47;;;;;;;31.02;5.25;;;;;;;24.47;62.00;97580.44;4971316;28;20085;-72
2021/07/12 09:57:12;;;;;;;25.77;5.15;;;;;;;24.02;63.97;97581.56;4970244;28;20035;-70
2021/07/12 10:00:06;;;;;;;30.33;5.40;;;;;;;24.36;63.10;97573.56;4972084;28;20081;-70
2021/07/12 10:02:33;;;;;;;29.75;5.32;;;;;;;24.69;61.47;97575.56;4948344;28;20083;-71
2021/07/12 10:05:09;;;;;;;23.67;4.65;;;;;;;24.44;62.43;97570.94;4949745;28;20037;-72
2021/07/12 10:07:34;;;;;;;42.13;6.22;;;;;;;24.09;63.27;97568.44;4974179;28;20046;-72
2021/07/12 10:10:02;;;;;;;37.15;5.82;;;;;;;24.48;62.00;97562.59;4971309;28;20026;-73
2021/07/12 10:12:28;;;;;;;33.05;5.80;;;;;;;24.52;65.85;97566.63;4972914;28;20096;-72
2021/07/12 10:14:55;;;;;;;32.90;5.20;;;;;;;24.66;61.60;97562.53;4976830;28;20109;-72
2021/07/12 10:17:21;;;;;;;33.03;5.72;;;;;;;24.46;62.06;97551.28;4974427;28;20034;-73
2021/07/12 10:19:46;;;;;;;33.20;5.43;;;;;;;24.78;60.97;97539.91;4974811;28;20113;-70
2021/07/12 10:22:13;;;;;;;29.40;5.28;;;;;;;24.79;60.88;97542.41;4974134;28;20125;-72
2021/07/12 10:24:47;;;;;;;29.20;5.10;;;;;;;24.89;60.80;97534.25;4975714;28;20027;-71
2021/07/12 10:27:24;;;;;;;21.75;4.68;;;;;;;25.07;61.10;97534.09;4976815;28;20054;-70
2021/07/12 10:29:51;;;;;;;23.50;4.40;;;;;;;24.96;60.37;97521.94;4977891;28;20111;-70
2021/07/12 10:32:24;;;;;;;28.80;5.15;;;;;;;24.96;59.88;97515.72;4975285;28;20497;-72
2021/07/12 10:34:55;;;;;;;29.75;5.15;;;;;;;25.21;59.54;97517.41;4974128;28;20030;-71
2021/07/12 10:37:24;;;;;;;33.03;5.35;;;;;;;25.12;59.52;97521.06;4971643;28;20031;-71
2021/07/12 10:39:59;;;;;;;32.80;5.10;;;;;;;25.24;58.34;97518.13;4975407;28;20422;-69
2021/07/12 10:42:45;;;;;;;33.78;5.50;;;;;;;24.03;61.58;97509.47;4973995;28;20038;-70
2021/07/12 10:45:20;;;;;;;34.58;5.75;;;;;;;24.76;60.27;97515.25;4975333;28;20069;-71
2021/07/12 10:48:02;;;;;;;34.40;5.57;;;;;;;24.90;59.57;97516.41;4973084;28;20907;-70
2021/07/12 10:50:41;;;;;;;27.63;4.75;;;;;;;25.12;58.71;97510.41;4988213;28;20468;-70
2021/07/12 10:53:12;;;;;;;29.50;4.93;;;;;;;24.95;59.34;97519.41;4972371;28;20046;-71
2021/07/12 10:55:37;;;;;;;31.73;5.10;;;;;;;24.91;59.35;97504.75;4972915;28;20039;-71
2021/07/12 10:58:18;;;;;;;30.90;5.20;;;;;;;24.82;59.09;97507.38;4975770;28;20033;-71
2021/07/12 11:00:52;;;;;;;25.13;4.32;;;;;;;24.88;60.12;97513.06;4974644;28;20045;-71
2021/07/12 11:03:42;;;;;;;34.97;5.07;;;;;;;24.86;59.23;97509.75;4972142;28;20054;-69
2021/07/12 11:06:16;;;;;;;26.65;4.38;;;;;;;24.73;59.38;97511.03;4973208;28;20034;-70
2021/07/12 11:08:47;;;;;;;29.92;4.72;;;;;;;25.20;58.01;97507.75;4973682;28;20645;-70
2021/07/12 11:11:37;;;;;;;32.33;4.68;;;;;;;24.70;59.93;97500.69;4973773;28;20085;-71
2021/07/12 11:14:08;;;;;;;27.30;4.40;;;;;;;24.93;58.60;97503.56;4970718;28;20088;-71
2021/07/12 11:16:42;;;;;;;30.52;4.80;;;;;;;25.04;59.23;97506.91;4988947;28;20046;-70
2021/07/12 11:19:24;;;;;;;28.58;4.63;;;;;;;25.36;58.22;97511.44;4973791;28;20037;-72
2021/07/12 11:21:51;;;;;;;30.10;4.60;;;;;;;25.07;57.99;97511.91;4972497;28;20042;-70
2021/07/12 11:24:23;;;;;;;31.95;4.70;;;;;;;25.06;57.90;97508.41;4974536;28;20038;-71
2021/07/12 11:27:02;;;;;;;25.85;4.35;;;;;;;25.34;56.78;97497.41;4973044;28;20710;-70
2021/07/12 11:29:40;;;;;;;35.45;5.05;;;;;;;25.03;57.24;97500.72;4974629;28;20050;-70
2021/07/12 11:32:05;;;;;;;29.90;4.20;;;;;;;25.32;58.80;97499.44;4974102;28;20381;-71
2021/07/12 11:34:44;;;;;;;30.02;4.43;;;;;;;25.47;55.68;97499.56;4974031;28;20037;-71
2021/07/12 11:37:19;;;;;;;26.55;3.95;;;;;;;25.83;54.41;97497.31;4971181;28;20039;-70